sensor_id;sensor_type;location;lat;lon;timestamp;temperature;humidity
22426;DHT22;11380;50.822;15.790;2022-09-09T00:02:11;13.10;99.90
22426;DHT22;11380;50.822;15.790;2022-09-09T00:12:43;13.10;99.90
22426;DHT22;11380;50.822;15.790;2022-09-09T00:18:03;13.00;99.90
22426;DHT22;11380;50.822;15.790;2022-09-09T00:23:25;13.20;99.90
22426;DHT22;11380;50.822;15.790;2022-09-09T00:28:33;12.60;99.90
22426;DHT22;11380;50.822;15.790;2022-09-09T00:33:39;12.60;99.90
22426;DHT22;11380;50.822;15.790;2022-09-09T00:38:51;12.50;99.90
22426;DHT22;11380;50.822;15.790;2022-09-09T00:44:03;12.70;99.90
22426;DHT22;11380;50.822;15.790;2022-09-09T00:49:20;12.70;99.90
22426;DHT22;11380;50.822;15.790;2022-09-09T00:59:50;13.00;99.90
22426;DHT22;11380;50.822;15.790;2022-09-09T01:05:10;13.10;99.90
22426;DHT22;11380;50.822;15.790;2022-09-09T01:10:14;12.70;99.90
22426;DHT22;11380;50.822;15.790;2022-09-09T01:15:28;12.70;99.90
22426;DHT22;11380;50.822;15.790;2022-09-09T01:31:31;12.50;99.90
22426;DHT22;11380;50.822;15.790;2022-09-09T01:41:52;12.80;99.90
22426;DHT22;11380;50.822;15.790;2022-09-09T01:46:57;13.20;99.90
22426;DHT22;11380;50.822;15.790;2022-09-09T01:52:04;13.20;99.90
22426;DHT22;11380;50.822;15.790;2022-09-09T01:57:21;13.10;99.90
22426;DHT22;11380;50.822;15.790;2022-09-09T02:07:53;12.50;65.30
22426;DHT22;11380;50.822;15.790;2022-09-09T02:13:04;12.40;99.90
22426;DHT22;11380;50.822;15.790;2022-09-09T02:18:11;12.10;76.20
22426;DHT22;11380;50.822;15.790;2022-09-09T02:23:17;12.00;91.50
22426;DHT22;11380;50.822;15.790;2022-09-09T02:28:24;11.80;99.90
22426;DHT22;11380;50.822;15.790;2022-09-09T02:33:38;11.70;99.90
22426;DHT22;11380;50.822;15.790;2022-09-09T02:38:41;11.70;99.90
22426;DHT22;11380;50.822;15.790;2022-09-09T02:43:46;11.30;99.90
22426;DHT22;11380;50.822;15.790;2022-09-09T02:48:59;11.10;99.90
22426;DHT22;11380;50.822;15.790;2022-09-09T02:54:27;11.30;99.90
22426;DHT22;11380;50.822;15.790;2022-09-09T02:59:35;11.50;99.90
22426;DHT22;11380;50.822;15.790;2022-09-09T03:04:41;11.10;99.90
22426;DHT22;11380;50.822;15.790;2022-09-09T03:09:48;10.70;99.90
22426;DHT22;11380;50.822;15.790;2022-09-09T03:14:53;11.30;99.90
22426;DHT22;11380;50.822;15.790;2022-09-09T03:19:58;11.50;99.90
22426;DHT22;11380;50.822;15.790;2022-09-09T03:25:03;11.60;99.90
22426;DHT22;11380;50.822;15.790;2022-09-09T03:30:11;11.50;99.90
22426;DHT22;11380;50.822;15.790;2022-09-09T03:35:18;11.60;99.90
22426;DHT22;11380;50.822;15.790;2022-09-09T03:40:23;11.50;99.90
22426;DHT22;11380;50.822;15.790;2022-09-09T03:45:28;11.60;99.90
22426;DHT22;11380;50.822;15.790;2022-09-09T03:50:34;11.20;99.90
22426;DHT22;11380;50.822;15.790;2022-09-09T03:55:39;11.20;99.90
22426;DHT22;11380;50.822;15.790;2022-09-09T04:00:56;11.40;99.90
22426;DHT22;11380;50.822;15.790;2022-09-09T04:06:03;11.70;99.90
22426;DHT22;11380;50.822;15.790;2022-09-09T04:11:10;11.10;99.90
22426;DHT22;11380;50.822;15.790;2022-09-09T04:16:15;11.50;99.90
22426;DHT22;11380;50.822;15.790;2022-09-09T04:21:20;11.30;99.90
22426;DHT22;11380;50.822;15.790;2022-09-09T04:26:26;11.20;99.90
22426;DHT22;11380;50.822;15.790;2022-09-09T04:31:31;11.30;99.90
22426;DHT22;11380;50.822;15.790;2022-09-09T04:36:36;11.30;99.90
22426;DHT22;11380;50.822;15.790;2022-09-09T04:41:44;10.90;99.90
22426;DHT22;11380;50.822;15.790;2022-09-09T04:46:49;11.20;99.90
22426;DHT22;11380;50.822;15.790;2022-09-09T04:51:54;11.00;99.90
22426;DHT22;11380;50.822;15.790;2022-09-09T04:56:59;10.90;99.90
22426;DHT22;11380;50.822;15.790;2022-09-09T05:02:05;10.90;99.90
22426;DHT22;11380;50.822;15.790;2022-09-09T05:07:12;11.20;99.90
22426;DHT22;11380;50.822;15.790;2022-09-09T05:12:18;11.30;99.90
22426;DHT22;11380;50.822;15.790;2022-09-09T05:17:24;11.50;99.90
22426;DHT22;11380;50.822;15.790;2022-09-09T05:22:30;11.90;99.90
22426;DHT22;11380;50.822;15.790;2022-09-09T05:27:35;12.20;99.90
22426;DHT22;11380;50.822;15.790;2022-09-09T05:32:42;12.50;99.90
22426;DHT22;11380;50.822;15.790;2022-09-09T05:37:48;13.00;99.90
22426;DHT22;11380;50.822;15.790;2022-09-09T05:42:54;13.20;99.90
22426;DHT22;11380;50.822;15.790;2022-09-09T05:48:00;13.40;99.90
22426;DHT22;11380;50.822;15.790;2022-09-09T05:53:06;13.40;99.90
22426;DHT22;11380;50.822;15.790;2022-09-09T05:58:13;13.30;99.90
22426;DHT22;11380;50.822;15.790;2022-09-09T06:03:20;13.50;99.90
22426;DHT22;11380;50.822;15.790;2022-09-09T06:08:27;13.70;99.90
22426;DHT22;11380;50.822;15.790;2022-09-09T06:13:33;14.00;99.90
22426;DHT22;11380;50.822;15.790;2022-09-09T06:18:41;14.10;99.90
22426;DHT22;11380;50.822;15.790;2022-09-09T06:23:47;14.30;99.90
22426;DHT22;11380;50.822;15.790;2022-09-09T06:28:54;14.40;99.90
22426;DHT22;11380;50.822;15.790;2022-09-09T06:34:08;14.40;99.90
22426;DHT22;11380;50.822;15.790;2022-09-09T06:39:09;15.00;99.90
22426;DHT22;11380;50.822;15.790;2022-09-09T06:44:17;15.00;99.90
22426;DHT22;11380;50.822;15.790;2022-09-09T06:49:22;15.30;99.90
22426;DHT22;11380;50.822;15.790;2022-09-09T06:54:27;15.50;99.90
22426;DHT22;11380;50.822;15.790;2022-09-09T06:59:33;15.80;99.90
22426;DHT22;11380;50.822;15.790;2022-09-09T07:04:39;16.20;99.90
22426;DHT22;11380;50.822;15.790;2022-09-09T07:09:43;16.40;99.90
22426;DHT22;11380;50.822;15.790;2022-09-09T07:14:49;16.80;99.90
22426;DHT22;11380;50.822;15.790;2022-09-09T07:19:54;17.00;1.00
22426;DHT22;11380;50.822;15.790;2022-09-09T07:25:00;17.10;1.00
22426;DHT22;11380;50.822;15.790;2022-09-09T07:30:07;17.20;1.00
22426;DHT22;11380;50.822;15.790;2022-09-09T07:35:13;17.00;34.20
22426;DHT22;11380;50.822;15.790;2022-09-09T07:40:18;17.20;1.00
22426;DHT22;11380;50.822;15.790;2022-09-09T07:45:26;17.70;1.00
22426;DHT22;11380;50.822;15.790;2022-09-09T07:50:33;18.00;1.00
22426;DHT22;11380;50.822;15.790;2022-09-09T07:55:38;18.10;1.00
22426;DHT22;11380;50.822;15.790;2022-09-09T08:00:44;18.30;1.00
22426;DHT22;11380;50.822;15.790;2022-09-09T08:05:50;18.70;1.00
22426;DHT22;11380;50.822;15.790;2022-09-09T08:11:11;19.00;1.00
22426;DHT22;11380;50.822;15.790;2022-09-09T08:16:16;19.70;1.00
22426;DHT22;11380;50.822;15.790;2022-09-09T08:21:24;19.80;1.00
22426;DHT22;11380;50.822;15.790;2022-09-09T08:26:38;20.40;1.00
22426;DHT22;11380;50.822;15.790;2022-09-09T08:31:46;20.30;1.00
22426;DHT22;11380;50.822;15.790;2022-09-09T08:36:53;20.90;1.00
22426;DHT22;11380;50.822;15.790;2022-09-09T08:42:17;20.60;1.00
22426;DHT22;11380;50.822;15.790;2022-09-09T08:47:27;20.40;1.00
22426;DHT22;11380;50.822;15.790;2022-09-09T08:58:09;20.70;99.90
22426;DHT22;11380;50.822;15.790;2022-09-09T09:08:46;20.80;99.90
22426;DHT22;11380;50.822;15.790;2022-09-09T09:14:17;20.70;99.90
22426;DHT22;11380;50.822;15.790;2022-09-09T09:19:21;20.80;99.90
22426;DHT22;11380;50.822;15.790;2022-09-09T09:24:45;20.40;99.90
22426;DHT22;11380;50.822;15.790;2022-09-09T09:29:50;20.60;99.90
22426;DHT22;11380;50.822;15.790;2022-09-09T09:34:58;21.40;84.00
22426;DHT22;11380;50.822;15.790;2022-09-09T09:40:10;21.50;99.90
22426;DHT22;11380;50.822;15.790;2022-09-09T09:45:35;22.00;19.70
22426;DHT22;11380;50.822;15.790;2022-09-09T09:50:51;22.40;99.90
22426;DHT22;11380;50.822;15.790;2022-09-09T09:56:00;23.00;1.00
22426;DHT22;11380;50.822;15.790;2022-09-09T10:01:18;23.20;1.00
22426;DHT22;11380;50.822;15.790;2022-09-09T10:06:16;23.30;1.00
22426;DHT22;11380;50.822;15.790;2022-09-09T10:11:38;23.40;1.00
22426;DHT22;11380;50.822;15.790;2022-09-09T10:22:31;23.60;99.90
22426;DHT22;11380;50.822;15.790;2022-09-09T10:33:04;23.60;99.90
22426;DHT22;11380;50.822;15.790;2022-09-09T10:38:16;23.80;99.90
22426;DHT22;11380;50.822;15.790;2022-09-09T10:43:41;23.10;13.80
22426;DHT22;11380;50.822;15.790;2022-09-09T10:59:30;24.60;99.90
22426;DHT22;11380;50.822;15.790;2022-09-09T11:04:42;24.90;99.90
22426;DHT22;11380;50.822;15.790;2022-09-09T11:09:50;25.10;99.90
22426;DHT22;11380;50.822;15.790;2022-09-09T11:15:08;24.80;99.90
22426;DHT22;11380;50.822;15.790;2022-09-09T11:20:14;24.30;99.90
22426;DHT22;11380;50.822;15.790;2022-09-09T11:25:26;23.90;99.90
22426;DHT22;11380;50.822;15.790;2022-09-09T11:41:15;24.90;1.00
22426;DHT22;11380;50.822;15.790;2022-09-09T11:46:31;24.50;1.00
22426;DHT22;11380;50.822;15.790;2022-09-09T11:51:33;23.80;99.90
22426;DHT22;11380;50.822;15.790;2022-09-09T11:56:44;24.70;1.00
22426;DHT22;11380;50.822;15.790;2022-09-09T12:01:59;25.00;99.90
22426;DHT22;11380;50.822;15.790;2022-09-09T12:12:31;25.50;99.90
22426;DHT22;11380;50.822;15.790;2022-09-09T12:17:44;25.60;1.00
22426;DHT22;11380;50.822;15.790;2022-09-09T12:23:22;25.20;99.90
22426;DHT22;11380;50.822;15.790;2022-09-09T12:28:51;24.80;99.90
22426;DHT22;11380;50.822;15.790;2022-09-09T12:34:11;23.90;99.90
22426;DHT22;11380;50.822;15.790;2022-09-09T12:39:25;23.70;99.90
22426;DHT22;11380;50.822;15.790;2022-09-09T12:44:26;23.10;99.90
22426;DHT22;11380;50.822;15.790;2022-09-09T12:49:38;22.80;99.90
22426;DHT22;11380;50.822;15.790;2022-09-09T12:54:46;22.70;1.00
22426;DHT22;11380;50.822;15.790;2022-09-09T12:59:52;22.70;99.90
22426;DHT22;11380;50.822;15.790;2022-09-09T13:05:19;23.20;99.90
22426;DHT22;11380;50.822;15.790;2022-09-09T13:10:26;23.50;99.90
22426;DHT22;11380;50.822;15.790;2022-09-09T13:15:33;23.40;1.00
22426;DHT22;11380;50.822;15.790;2022-09-09T13:20:38;22.90;1.00
22426;DHT22;11380;50.822;15.790;2022-09-09T13:25:52;22.70;1.00
22426;DHT22;11380;50.822;15.790;2022-09-09T13:31:03;22.80;1.00
22426;DHT22;11380;50.822;15.790;2022-09-09T13:36:11;22.80;1.00
22426;DHT22;11380;50.822;15.790;2022-09-09T13:41:23;22.70;1.00
22426;DHT22;11380;50.822;15.790;2022-09-09T13:46:39;22.80;99.90
22426;DHT22;11380;50.822;15.790;2022-09-09T13:51:51;22.60;99.90
22426;DHT22;11380;50.822;15.790;2022-09-09T13:56:55;22.70;99.90
22426;DHT22;11380;50.822;15.790;2022-09-09T14:02:00;22.60;99.90
22426;DHT22;11380;50.822;15.790;2022-09-09T14:07:14;22.60;1.00
22426;DHT22;11380;50.822;15.790;2022-09-09T14:12:16;22.60;98.80
22426;DHT22;11380;50.822;15.790;2022-09-09T14:17:22;22.60;1.00
22426;DHT22;11380;50.822;15.790;2022-09-09T14:22:29;22.10;49.10
22426;DHT22;11380;50.822;15.790;2022-09-09T14:27:34;21.90;99.90
22426;DHT22;11380;50.822;15.790;2022-09-09T14:32:39;21.70;99.90
22426;DHT22;11380;50.822;15.790;2022-09-09T14:37:44;21.60;1.00
22426;DHT22;11380;50.822;15.790;2022-09-09T14:42:52;21.30;99.90
22426;DHT22;11380;50.822;15.790;2022-09-09T14:47:58;21.30;99.90
22426;DHT22;11380;50.822;15.790;2022-09-09T14:53:03;21.30;1.00
22426;DHT22;11380;50.822;15.790;2022-09-09T14:58:08;21.10;99.90
22426;DHT22;11380;50.822;15.790;2022-09-09T15:03:14;21.10;1.00
22426;DHT22;11380;50.822;15.790;2022-09-09T15:08:19;20.90;1.00
22426;DHT22;11380;50.822;15.790;2022-09-09T15:13:24;20.90;57.20
22426;DHT22;11380;50.822;15.790;2022-09-09T15:18:31;20.60;99.90
22426;DHT22;11380;50.822;15.790;2022-09-09T15:23:36;20.80;1.00
22426;DHT22;11380;50.822;15.790;2022-09-09T15:28:44;20.70;1.00
22426;DHT22;11380;50.822;15.790;2022-09-09T15:33:57;20.50;1.00
22426;DHT22;11380;50.822;15.790;2022-09-09T15:38:59;20.50;1.00
22426;DHT22;11380;50.822;15.790;2022-09-09T15:44:05;20.40;99.90
22426;DHT22;11380;50.822;15.790;2022-09-09T15:49:19;20.20;1.00
22426;DHT22;11380;50.822;15.790;2022-09-09T15:54:27;20.00;99.90
22426;DHT22;11380;50.822;15.790;2022-09-09T16:32:57;18.50;1.00
22426;DHT22;11380;50.822;15.790;2022-09-09T16:38:03;18.40;1.00
22426;DHT22;11380;50.822;15.790;2022-09-09T16:43:08;18.30;1.00
22426;DHT22;11380;50.822;15.790;2022-09-09T16:48:16;17.80;1.00
22426;DHT22;11380;50.822;15.790;2022-09-09T16:53:21;17.70;1.00
22426;DHT22;11380;50.822;15.790;2022-09-09T16:58:26;17.90;1.00
22426;DHT22;11380;50.822;15.790;2022-09-09T17:03:32;18.00;1.00
22426;DHT22;11380;50.822;15.790;2022-09-09T17:08:38;17.80;24.10
22426;DHT22;11380;50.822;15.790;2022-09-09T17:13:47;17.60;88.40
22426;DHT22;11380;50.822;15.790;2022-09-09T17:18:55;17.50;28.60
22426;DHT22;11380;50.822;15.790;2022-09-09T17:24:01;17.50;23.10
22426;DHT22;11380;50.822;15.790;2022-09-09T17:29:07;17.60;1.00
22426;DHT22;11380;50.822;15.790;2022-09-09T17:34:12;17.10;99.90
22426;DHT22;11380;50.822;15.790;2022-09-09T17:39:18;16.90;99.90
22426;DHT22;11380;50.822;15.790;2022-09-09T17:44:24;17.20;99.90
22426;DHT22;11380;50.822;15.790;2022-09-09T17:49:31;17.20;99.90
22426;DHT22;11380;50.822;15.790;2022-09-09T17:54:37;17.00;99.90
22426;DHT22;11380;50.822;15.790;2022-09-09T17:59:42;16.90;99.90
22426;DHT22;11380;50.822;15.790;2022-09-09T18:04:48;16.70;1.00
22426;DHT22;11380;50.822;15.790;2022-09-09T18:09:54;16.50;99.90
22426;DHT22;11380;50.822;15.790;2022-09-09T18:15:00;16.40;99.90
22426;DHT22;11380;50.822;15.790;2022-09-09T18:20:08;16.30;99.90
22426;DHT22;11380;50.822;15.790;2022-09-09T18:25:15;16.40;99.90
22426;DHT22;11380;50.822;15.790;2022-09-09T18:30:22;16.60;99.90
22426;DHT22;11380;50.822;15.790;2022-09-09T18:35:27;16.60;65.60
22426;DHT22;11380;50.822;15.790;2022-09-09T18:40:33;16.50;99.90
22426;DHT22;11380;50.822;15.790;2022-09-09T18:45:40;16.60;99.90
22426;DHT22;11380;50.822;15.790;2022-09-09T18:50:46;16.30;99.90
22426;DHT22;11380;50.822;15.790;2022-09-09T18:56:02;16.60;99.90
22426;DHT22;11380;50.822;15.790;2022-09-09T19:00:59;16.40;99.90
22426;DHT22;11380;50.822;15.790;2022-09-09T19:06:08;16.30;99.90
22426;DHT22;11380;50.822;15.790;2022-09-09T19:11:16;16.30;99.90
22426;DHT22;11380;50.822;15.790;2022-09-09T19:16:27;16.20;99.90
22426;DHT22;11380;50.822;15.790;2022-09-09T19:21:35;16.40;99.90
22426;DHT22;11380;50.822;15.790;2022-09-09T19:26:45;16.10;99.90
22426;DHT22;11380;50.822;15.790;2022-09-09T19:31:54;16.00;99.90
22426;DHT22;11380;50.822;15.790;2022-09-09T19:37:02;16.30;7.30
22426;DHT22;11380;50.822;15.790;2022-09-09T19:42:08;16.20;99.90
22426;DHT22;11380;50.822;15.790;2022-09-09T19:47:13;16.00;99.90
22426;DHT22;11380;50.822;15.790;2022-09-09T19:52:19;16.00;99.90
22426;DHT22;11380;50.822;15.790;2022-09-09T19:57:27;16.00;99.90
22426;DHT22;11380;50.822;15.790;2022-09-09T20:02:33;16.10;99.90
22426;DHT22;11380;50.822;15.790;2022-09-09T20:07:40;16.10;99.90
22426;DHT22;11380;50.822;15.790;2022-09-09T20:12:45;16.00;99.90
22426;DHT22;11380;50.822;15.790;2022-09-09T20:17:51;16.10;99.90
22426;DHT22;11380;50.822;15.790;2022-09-09T20:22:56;16.10;99.90
22426;DHT22;11380;50.822;15.790;2022-09-09T20:28:02;16.30;99.90
22426;DHT22;11380;50.822;15.790;2022-09-09T20:33:09;16.20;99.90
22426;DHT22;11380;50.822;15.790;2022-09-09T20:38:14;16.30;99.90
22426;DHT22;11380;50.822;15.790;2022-09-09T20:43:21;16.10;99.90
22426;DHT22;11380;50.822;15.790;2022-09-09T20:48:26;16.00;99.90
22426;DHT22;11380;50.822;15.790;2022-09-09T20:53:32;16.20;99.90
22426;DHT22;11380;50.822;15.790;2022-09-09T20:58:38;16.00;99.90
22426;DHT22;11380;50.822;15.790;2022-09-09T21:03:44;15.80;99.90
22426;DHT22;11380;50.822;15.790;2022-09-09T21:08:50;15.70;99.90
22426;DHT22;11380;50.822;15.790;2022-09-09T21:13:55;16.00;99.90
22426;DHT22;11380;50.822;15.790;2022-09-09T21:19:02;15.70;99.90
22426;DHT22;11380;50.822;15.790;2022-09-09T21:24:08;15.80;99.90
22426;DHT22;11380;50.822;15.790;2022-09-09T21:29:13;15.80;99.90
22426;DHT22;11380;50.822;15.790;2022-09-09T21:34:19;15.80;99.90
22426;DHT22;11380;50.822;15.790;2022-09-09T21:39:25;16.00;99.90
22426;DHT22;11380;50.822;15.790;2022-09-09T21:44:30;16.20;99.90
22426;DHT22;11380;50.822;15.790;2022-09-09T21:49:35;16.00;99.90
22426;DHT22;11380;50.822;15.790;2022-09-09T21:54:40;16.10;99.90
22426;DHT22;11380;50.822;15.790;2022-09-09T21:59:47;15.60;99.90
22426;DHT22;11380;50.822;15.790;2022-09-09T22:04:53;15.40;99.90
22426;DHT22;11380;50.822;15.790;2022-09-09T22:09:58;15.40;99.90
22426;DHT22;11380;50.822;15.790;2022-09-09T22:15:05;15.60;99.90
22426;DHT22;11380;50.822;15.790;2022-09-09T22:20:11;15.60;99.90
22426;DHT22;11380;50.822;15.790;2022-09-09T22:25:18;15.60;99.90
22426;DHT22;11380;50.822;15.790;2022-09-09T22:30:23;15.40;99.90
22426;DHT22;11380;50.822;15.790;2022-09-09T22:35:28;15.40;99.90
22426;DHT22;11380;50.822;15.790;2022-09-09T22:40:37;15.30;99.90
22426;DHT22;11380;50.822;15.790;2022-09-09T22:45:44;15.30;99.90
22426;DHT22;11380;50.822;15.790;2022-09-09T22:50:49;15.20;99.90
22426;DHT22;11380;50.822;15.790;2022-09-09T22:56:03;15.20;99.90
22426;DHT22;11380;50.822;15.790;2022-09-09T23:01:18;15.20;99.90
22426;DHT22;11380;50.822;15.790;2022-09-09T23:06:22;15.10;99.90
22426;DHT22;11380;50.822;15.790;2022-09-09T23:11:30;15.10;99.90
22426;DHT22;11380;50.822;15.790;2022-09-09T23:16:45;15.10;99.90
22426;DHT22;11380;50.822;15.790;2022-09-09T23:21:47;15.10;99.90
22426;DHT22;11380;50.822;15.790;2022-09-09T23:26:53;15.10;99.90
22426;DHT22;11380;50.822;15.790;2022-09-09T23:31:58;15.10;99.90
22426;DHT22;11380;50.822;15.790;2022-09-09T23:37:03;15.00;99.90
22426;DHT22;11380;50.822;15.790;2022-09-09T23:42:10;14.80;99.90
22426;DHT22;11380;50.822;15.790;2022-09-09T23:47:15;14.70;99.90
22426;DHT22;11380;50.822;15.790;2022-09-09T23:52:20;14.70;99.90
22426;DHT22;11380;50.822;15.790;2022-09-09T23:57:27;14.50;99.90
